Time;durP1;ratioP1;P1;durP2;ratioP2;P2;SDS_P1;SDS_P2;PMS_P1;PMS_P2;Temp;Humidity;BMP_temperature;BMP_pressure;BME280_temperature;BME280_humidity;BME280_pressure;Samples;Min_cycle;Max_cycle;Signal;HPM_P1;HPM_P2
2023/01/08 00:01:12;;;;;;;12.10;5.35;;;;;;;14.55;70.35;100006.63;4985350;28;20394;-61
2023/01/08 00:03:39;;;;;;;13.20;4.22;;;;;;;14.35;71.27;100000.16;4982580;28;20057;-61
2023/01/08 00:06:11;;;;;;;11.65;3.40;;;;;;;14.41;70.86;99989.63;4984107;28;20046;-62
2023/01/08 00:08:39;;;;;;;10.40;3.30;;;;;;;14.47;70.28;99991.75;4980285;28;20046;-59
2023/01/08 00:11:06;;;;;;;10.88;3.72;;;;;;;14.57;70.74;99985.69;4997050;28;20046;-62
2023/01/08 00:13:34;;;;;;;12.63;3.42;;;;;;;14.68;70.34;99983.97;5011536;28;20054;-62
2023/01/08 00:16:11;;;;;;;13.70;3.80;;;;;;;14.68;70.02;99977.63;4987751;28;20046;-61
2023/01/08 00:18:39;;;;;;;12.40;3.80;;;;;;;14.81;70.07;99984.69;4979757;28;20413;-61
2023/01/08 00:21:06;;;;;;;10.30;4.03;;;;;;;14.58;70.20;99980.94;4997036;28;20049;-61
2023/01/08 00:23:34;;;;;;;13.70;3.70;;;;;;;14.29;72.13;99979.44;4978773;28;20058;-62
2023/01/08 00:26:02;;;;;;;13.60;3.10;;;;;;;14.56;71.09;99986.03;4996664;28;20065;-61
2023/01/08 00:28:30;;;;;;;15.32;3.97;;;;;;;14.50;71.00;99976.41;4996423;28;20494;-62
2023/01/08 00:30:57;;;;;;;10.57;3.42;;;;;;;14.28;70.91;99974.22;4996552;28;20054;-62
2023/01/08 00:33:24;;;;;;;11.30;3.70;;;;;;;14.52;71.28;99985.16;4996969;28;20050;-60
2023/01/08 00:35:52;;;;;;;12.70;3.80;;;;;;;14.32;70.94;99986.22;4994862;28;20053;-61
2023/01/08 00:38:19;;;;;;;12.48;3.63;;;;;;;14.52;70.97;99988.72;4995890;28;20775;-64
2023/01/08 00:40:47;;;;;;;11.38;3.97;;;;;;;14.40;70.60;99983.25;4996016;28;20537;-64
2023/01/08 00:43:14;;;;;;;13.73;3.33;;;;;;;14.30;71.40;99974.66;4995310;28;20054;-63
2023/01/08 00:45:41;;;;;;;9.40;3.60;;;;;;;14.52;71.27;99979.63;4996142;28;20073;-63
2023/01/08 00:48:09;;;;;;;10.43;3.10;;;;;;;14.53;70.64;99975.69;4995288;28;20046;-61
2023/01/08 00:50:37;;;;;;;12.13;3.30;;;;;;;14.24;72.09;99973.31;4995150;28;20058;-60
2023/01/08 00:53:05;;;;;;;9.18;3.30;;;;;;;14.12;71.01;99960.31;4977003;28;20050;-62
2023/01/08 00:55:32;;;;;;;9.15;3.17;;;;;;;14.07;72.04;99946.75;4979706;28;20065;-62
2023/01/08 00:57:59;;;;;;;9.00;3.00;;;;;;;13.94;72.75;99952.72;4995262;28;20065;-62
2023/01/08 01:00:27;;;;;;;9.52;3.35;;;;;;;13.96;72.05;99955.94;4996002;28;20530;-62
2023/01/08 01:02:54;;;;;;;11.48;3.47;;;;;;;14.04;72.32;99963.25;4996129;28;20058;-62
2023/01/08 01:05:22;;;;;;;7.30;3.30;;;;;;;13.97;72.86;99963.88;4978537;28;20050;-61
2023/01/08 01:07:49;;;;;;;7.72;3.17;;;;;;;13.98;72.10;99945.31;4996460;28;20046;-62
2023/01/08 01:10:16;;;;;;;10.10;3.17;;;;;;;13.98;72.30;99943.31;4995904;28;20046;-62
2023/01/08 01:12:44;;;;;;;9.35;3.53;;;;;;;14.14;71.52;99937.84;4995814;28;20513;-62
2023/01/08 01:15:14;;;;;;;9.00;2.58;;;;;;;13.72;71.48;99943.00;4989087;28;20054;-66
2023/01/08 01:17:42;;;;;;;9.25;3.15;;;;;;;13.83;72.80;99941.34;4969432;28;20059;-62
2023/01/08 01:20:13;;;;;;;11.45;3.08;;;;;;;14.15;72.46;99942.19;4976957;28;20084;-62
2023/01/08 01:22:41;;;;;;;11.05;3.35;;;;;;;14.08;71.94;99942.00;4978838;28;20394;-62
2023/01/08 01:25:09;;;;;;;10.07;3.13;;;;;;;14.08;71.89;99942.81;4976321;28;20067;-62
2023/01/08 01:27:36;;;;;;;9.15;3.25;;;;;;;13.93;72.78;99943.59;4977171;28;20073;-61
2023/01/08 01:30:04;;;;;;;10.10;2.70;;;;;;;14.10;72.25;99936.94;4995509;28;20390;-62
2023/01/08 01:32:32;;;;;;;12.40;2.80;;;;;;;13.96;71.66;99933.78;4994977;28;20053;-61
2023/01/08 01:34:59;;;;;;;9.27;2.70;;;;;;;13.94;72.06;99936.09;4995131;28;20518;-61
2023/01/08 01:37:27;;;;;;;7.85;2.60;;;;;;;13.95;72.00;99926.63;4995762;28;20406;-61
2023/01/08 01:39:55;;;;;;;11.27;2.95;;;;;;;13.76;73.06;99930.06;4996209;28;20046;-62
2023/01/08 01:42:40;;;;;;;12.27;3.15;;;;;;;13.93;72.39;99940.81;4995622;28;20061;-62
2023/01/08 01:45:23;;;;;;;8.82;2.75;;;;;;;13.72;72.60;99948.53;4996156;28;20061;-62
2023/01/08 01:47:59;;;;;;;7.25;2.92;;;;;;;13.85;72.78;99940.97;4995107;28;20046;-62
2023/01/08 01:50:31;;;;;;;10.43;2.88;;;;;;;14.13;72.78;99944.53;4995755;28;20054;-62
2023/01/08 01:53:11;;;;;;;9.20;2.85;;;;;;;13.80;72.44;99949.53;4978704;28;20055;-61
2023/01/08 01:55:40;;;;;;;6.60;2.88;;;;;;;13.93;72.94;99949.13;4995308;28;20055;-63
2023/01/08 01:58:17;;;;;;;13.10;2.92;;;;;;;13.89;72.40;99939.13;4996102;28;20050;-61
2023/01/08 02:00:44;;;;;;;8.40;2.53;;;;;;;13.83;72.26;99955.19;4978421;28;20482;-61
2023/01/08 02:03:13;;;;;;;7.85;2.40;;;;;;;13.86;72.25;99945.38;4993602;28;20058;-61
2023/01/08 02:05:55;;;;;;;9.20;2.95;;;;;;;13.85;72.46;99949.28;4995488;28;20046;-61
2023/01/08 02:08:49;;;;;;;9.45;2.97;;;;;;;13.66;72.46;99949.97;4978682;28;20363;-61
2023/01/08 02:11:24;;;;;;;11.30;2.92;;;;;;;13.29;71.30;99960.34;4995471;28;20502;-61
2023/01/08 02:14:17;;;;;;;9.80;2.78;;;;;;;13.49;73.56;99953.81;4978053;28;20042;-61
2023/01/08 02:16:52;;;;;;;11.50;2.80;;;;;;;13.70;71.86;99950.88;5009659;28;20062;-62
2023/01/08 02:19:34;;;;;;;8.07;2.63;;;;;;;13.54;71.58;99953.59;4978710;28;20051;-62
2023/01/08 02:22:14;;;;;;;7.57;2.13;;;;;;;13.56;73.37;99962.31;4995966;28;20062;-64
2023/01/08 02:25:17;;;;;;;11.88;2.60;;;;;;;13.42;72.67;99959.13;4978492;28;20152;-63
2023/01/08 02:27:47;;;;;;;14.10;3.75;;;;;;;13.48;74.51;99949.44;5008182;28;20063;-63
2023/01/08 02:30:14;;;;;;;14.68;2.85;;;;;;;13.69;73.53;99949.25;5007486;28;20513;-62
2023/01/08 02:32:43;;;;;;;6.00;2.10;;;;;;;13.47;73.06;99956.16;4978287;28;20105;-64
2023/01/08 02:35:11;;;;;;;10.27;2.95;;;;;;;13.29;73.21;99959.53;4976132;28;20561;-61
2023/01/08 02:37:38;;;;;;;10.65;2.58;;;;;;;13.55;73.66;99965.44;4982262;28;20050;-62
2023/01/08 02:40:26;;;;;;;8.15;2.50;;;;;;;14.01;72.66;99950.13;4976361;28;20051;-61
2023/01/08 02:43:02;;;;;;;10.63;2.55;;;;;;;13.57;72.90;99960.38;4974210;28;20054;-62
2023/01/08 02:45:43;;;;;;;8.23;2.40;;;;;;;13.32;72.31;99942.22;4995875;28;20661;-62
2023/01/08 02:48:19;;;;;;;10.93;2.92;;;;;;;13.43;73.70;99948.88;5013929;28;20058;-62
2023/01/08 02:50:54;;;;;;;8.45;2.28;;;;;;;13.66;73.91;99943.59;4984139;28;20042;-63
2023/01/08 02:53:25;;;;;;;8.07;2.33;;;;;;;13.68;73.61;99955.94;4998725;28;20062;-63
2023/01/08 02:55:56;;;;;;;9.88;2.13;;;;;;;13.82;73.43;99947.22;4977037;28;20046;-69
2023/01/08 02:58:25;;;;;;;12.02;2.72;;;;;;;13.62;72.46;99959.31;4979104;28;20055;-63
2023/01/08 03:00:53;;;;;;;13.65;2.65;;;;;;;13.89;72.92;99955.75;4982836;28;20409;-63
2023/01/08 03:03:26;;;;;;;6.93;2.03;;;;;;;13.64;72.59;99943.97;4981407;28;20050;-68
2023/01/08 03:05:57;;;;;;;7.88;2.45;;;;;;;13.65;73.81;99942.78;4980989;28;20355;-66
2023/01/08 03:08:25;;;;;;;10.27;2.25;;;;;;;13.70;72.37;99941.75;4981406;28;20051;-61
2023/01/08 03:10:56;;;;;;;7.93;2.50;;;;;;;13.92;73.14;99936.44;4996755;28;20042;-62
2023/01/08 03:13:36;;;;;;;7.10;2.00;;;;;;;13.91;73.04;99937.63;4965129;28;20054;-62
2023/01/08 03:16:46;;;;;;;8.75;2.28;;;;;;;13.89;72.73;99934.41;4981487;28;20494;-62
2023/01/08 03:19:20;;;;;;;8.15;2.08;;;;;;;14.07;73.29;99924.59;4976172;28;20046;-61
2023/01/08 03:21:48;;;;;;;11.38;2.65;;;;;;;14.10;72.28;99923.91;4981074;28;20051;-63
2023/01/08 03:24:20;;;;;;;12.55;2.40;;;;;;;13.99;71.93;99925.56;4980669;28;20638;-62
2023/01/08 03:26:47;;;;;;;7.85;2.05;;;;;;;13.79;71.99;99926.59;5008408;28;20050;-62
2023/01/08 03:29:16;;;;;;;9.80;2.30;;;;;;;13.63;72.53;99924.94;4998222;28;20050;-62
2023/01/08 03:31:44;;;;;;;10.00;2.67;;;;;;;13.62;73.96;99920.56;5012942;28;20054;-61
2023/01/08 03:34:13;;;;;;;9.40;2.60;;;;;;;13.65;72.54;99922.63;4996440;28;20062;-62
2023/01/08 03:36:44;;;;;;;11.98;2.55;;;;;;;13.62;73.93;99920.56;4997961;28;20046;-62
2023/01/08 03:39:15;;;;;;;7.75;1.90;;;;;;;13.49;73.75;99926.16;4998019;28;20076;-61
2023/01/08 03:41:43;;;;;;;9.38;2.65;;;;;;;13.80;74.25;99911.59;4996317;28;20429;-62
2023/01/08 03:44:10;;;;;;;7.75;2.53;;;;;;;13.78;73.36;99904.81;4995950;28;20054;-62
2023/01/08 03:46:43;;;;;;;7.95;2.17;;;;;;;13.91;73.97;99909.13;5012461;28;20065;-61
2023/01/08 03:49:11;;;;;;;10.55;2.55;;;;;;;13.80;73.00;99905.25;4980784;28;20073;-61
2023/01/08 03:51:44;;;;;;;9.82;2.00;;;;;;;13.38;73.54;99902.13;4996126;28;20051;-61
2023/01/08 03:54:16;;;;;;;8.00;1.90;;;;;;;13.83;73.40;99905.34;4995424;28;20042;-63
2023/01/08 03:56:44;;;;;;;12.02;2.60;;;;;;;13.75;73.67;99897.22;4997189;28;20054;-63
2023/01/08 03:59:12;;;;;;;9.50;2.00;;;;;;;13.67;74.86;99903.72;4994898;28;20073;-62
2023/01/08 04:01:40;;;;;;;7.95;2.05;;;;;;;13.25;73.05;99895.03;4995936;28;20046;-62
2023/01/08 04:04:09;;;;;;;8.20;2.28;;;;;;;13.26;74.33;99899.38;4980239;28;20042;-61
2023/01/08 04:06:36;;;;;;;8.73;2.03;;;;;;;13.25;74.17;99890.28;4979837;28;20057;-63
2023/01/08 04:09:04;;;;;;;8.10;2.15;;;;;;;13.43;73.17;99888.03;4979304;28;20050;-62
2023/01/08 04:11:31;;;;;;;10.38;2.10;;;;;;;13.50;75.00;99885.47;4996815;28;20054;-62
2023/01/08 04:13:59;;;;;;;9.80;2.08;;;;;;;13.38;74.89;99880.78;4997333;28;20065;-62
2023/01/08 04:16:26;;;;;;;7.93;2.25;;;;;;;13.45;73.81;99869.94;4995720;28;20049;-61
2023/01/08 04:18:53;;;;;;;6.28;2.20;;;;;;;13.62;73.97;99877.09;4995451;28;20465;-61
2023/01/08 04:21:21;;;;;;;7.82;1.55;;;;;;;13.35;74.67;99870.41;5011264;28;20062;-61
2023/01/08 04:23:48;;;;;;;7.85;2.05;;;;;;;13.38;73.89;99855.91;4995188;28;20061;-62
2023/01/08 04:26:15;;;;;;;10.63;2.00;;;;;;;13.14;73.43;99858.78;4994968;28;20410;-63
2023/01/08 04:28:42;;;;;;;6.90;1.95;;;;;;;13.47;74.16;99862.09;5011765;28;20161;-63
2023/01/08 04:31:10;;;;;;;6.80;1.80;;;;;;;13.44;73.98;99856.47;4995328;28;20046;-62
2023/01/08 04:33:37;;;;;;;8.35;2.13;;;;;;;13.64;73.86;99860.13;4979480;28;20061;-60
2023/01/08 04:36:05;;;;;;;7.05;1.90;;;;;;;13.45;72.72;99853.34;4978572;28;20057;-61
2023/01/08 04:38:32;;;;;;;7.13;2.10;;;;;;;13.58;73.16;99851.31;4997032;28;20506;-62
2023/01/08 04:41:01;;;;;;;9.05;2.40;;;;;;;13.70;73.16;99848.47;4996324;28;20049;-61
2023/01/08 04:43:29;;;;;;;8.52;2.17;;;;;;;13.25;72.70;99845.25;4996784;28;20402;-61
2023/01/08 04:46:01;;;;;;;7.15;1.95;;;;;;;13.32;75.01;99837.13;4996541;28;20061;-61
2023/01/08 04:48:29;;;;;;;5.30;1.88;;;;;;;13.27;75.65;99840.97;4979032;28;20054;-60
2023/01/08 04:50:59;;;;;;;10.77;2.58;;;;;;;13.14;75.58;99836.66;4959229;28;20054;-69
2023/01/08 04:53:27;;;;;;;9.52;2.20;;;;;;;13.28;74.72;99823.22;4977310;28;20050;-69
2023/01/08 04:55:54;;;;;;;9.50;2.10;;;;;;;13.43;74.95;99830.75;4997200;28;20114;-69
2023/01/08 04:58:21;;;;;;;9.27;1.83;;;;;;;13.58;74.52;99834.72;4995155;28;20055;-69
2023/01/08 05:00:49;;;;;;;6.65;2.15;;;;;;;13.18;73.98;99820.94;4995824;28;20046;-69
2023/01/08 05:03:16;;;;;;;7.78;2.30;;;;;;;13.56;74.52;99820.41;4996641;28;20046;-69
2023/01/08 05:05:43;;;;;;;6.00;1.73;;;;;;;13.35;73.24;99817.88;4996033;28;20051;-69
2023/01/08 05:08:11;;;;;;;8.45;2.55;;;;;;;13.46;73.88;99810.66;4996732;28;20054;-69
2023/01/08 05:10:38;;;;;;;9.77;2.65;;;;;;;13.66;73.27;99814.34;4995760;28;20426;-69
2023/01/08 05:13:05;;;;;;;7.07;2.13;;;;;;;13.78;74.35;99817.03;4996413;28;20050;-68
2023/01/08 05:15:33;;;;;;;9.93;3.15;;;;;;;13.52;73.62;99817.56;4996078;28;20054;-70
2023/01/08 05:18:02;;;;;;;5.60;1.55;;;;;;;13.31;72.04;99816.16;4996701;28;20058;-69
2023/01/08 05:20:31;;;;;;;8.52;1.92;;;;;;;13.40;74.48;99819.59;4977824;28;20069;-69
2023/01/08 05:23:00;;;;;;;6.97;2.03;;;;;;;13.51;73.75;99817.91;4996528;28;20061;-68
2023/01/08 05:25:27;;;;;;;6.10;1.80;;;;;;;13.37;75.07;99812.00;4995051;28;20065;-69
2023/01/08 05:27:54;;;;;;;9.13;1.73;;;;;;;13.41;74.98;99804.59;4996272;28;20054;-68
2023/01/08 05:30:22;;;;;;;6.97;1.42;;;;;;;13.30;75.41;99817.34;4994825;28;20050;-68
2023/01/08 05:32:49;;;;;;;6.00;1.70;;;;;;;13.54;75.83;99815.25;4977920;28;20858;-68
2023/01/08 05:35:17;;;;;;;7.93;1.63;;;;;;;13.32;75.74;99821.34;4978118;28;20065;-69
2023/01/08 05:37:44;;;;;;;5.90;1.60;;;;;;;13.41;75.88;99840.53;4996320;28;20058;-68
2023/01/08 05:40:11;;;;;;;7.50;1.58;;;;;;;13.96;75.64;99889.47;4995565;28;20042;-69
2023/01/08 05:42:39;;;;;;;6.55;1.85;;;;;;;12.74;78.29;99866.22;4995831;28;20077;-67
2023/01/08 05:45:07;;;;;;;8.13;1.55;;;;;;;12.76;77.43;99874.94;4996034;28;20042;-68
2023/01/08 05:47:35;;;;;;;6.35;1.10;;;;;;;12.17;77.58;99871.06;5010266;28;20058;-68
2023/01/08 05:50:03;;;;;;;2.75;0.98;;;;;;;12.14;78.17;99866.25;4994030;28;20054;-68
2023/01/08 05:52:30;;;;;;;3.75;1.35;;;;;;;12.80;77.50;99861.22;4994353;28;20058;-70
2023/01/08 05:54:58;;;;;;;6.65;1.67;;;;;;;12.79;75.51;99851.34;4996117;28;20050;-68
2023/01/08 05:57:26;;;;;;;5.13;1.20;;;;;;;13.01;72.36;99834.22;4995765;28;20050;-68
2023/01/08 05:59:53;;;;;;;5.07;0.80;;;;;;;12.97;71.54;99836.09;4995890;28;20401;-68
2023/01/08 06:02:21;;;;;;;5.18;0.77;;;;;;;12.99;73.46;99829.06;4995543;28;20057;-68
2023/01/08 06:04:48;;;;;;;4.45;0.90;;;;;;;12.80;71.80;99828.06;4995944;28;20513;-68
2023/01/08 06:07:15;;;;;;;2.55;0.85;;;;;;;12.69;73.21;99830.53;4995625;28;20057;-68
2023/01/08 06:09:42;;;;;;;2.38;0.60;;;;;;;12.79;72.51;99829.22;4995993;28;20058;-68
2023/01/08 06:12:10;;;;;;;1.42;0.38;;;;;;;13.10;73.26;99821.09;4994942;28;20380;-69
2023/01/08 06:14:37;;;;;;;2.30;0.63;;;;;;;12.93;71.65;99824.94;4995744;28;20050;-69
2023/01/08 06:17:04;;;;;;;2.92;0.75;;;;;;;13.27;72.26;99826.31;5011548;28;20066;-62
2023/01/08 06:19:32;;;;;;;3.17;0.75;;;;;;;13.00;71.32;99835.41;5014471;28;20065;-68
2023/01/08 06:21:59;;;;;;;3.10;0.60;;;;;;;13.12;71.90;99836.19;4978015;28;20672;-62
2023/01/08 06:24:26;;;;;;;8.82;1.02;;;;;;;13.43;71.96;99836.28;4979858;28;20446;-62
2023/01/08 06:26:54;;;;;;;3.35;0.70;;;;;;;13.29;70.96;99846.13;4991969;28;20054;-61
2023/01/08 06:29:21;;;;;;;3.83;0.90;;;;;;;12.96;72.31;99835.28;5014496;28;20187;-61
2023/01/08 06:31:48;;;;;;;4.85;1.00;;;;;;;12.85;72.97;99838.91;4997667;28;20046;-69
2023/01/08 06:34:15;;;;;;;3.70;0.60;;;;;;;12.74;73.74;99844.13;4982287;28;20057;-68
2023/01/08 06:36:43;;;;;;;5.35;0.63;;;;;;;12.75;73.35;99844.91;4999068;28;20522;-69
2023/01/08 06:39:10;;;;;;;3.53;0.80;;;;;;;12.81;74.27;99840.75;4999016;28;20430;-62
2023/01/08 06:41:37;;;;;;;4.93;1.10;;;;;;;12.82;73.01;99843.16;4998696;28;20406;-62
2023/01/08 06:44:05;;;;;;;3.67;0.75;;;;;;;12.48;73.84;99849.22;5014088;28;20057;-62
2023/01/08 06:46:37;;;;;;;2.60;0.70;;;;;;;12.41;75.46;99857.28;4997945;28;20109;-61
2023/01/08 06:49:08;;;;;;;2.92;0.52;;;;;;;12.50;74.45;99846.09;5013790;28;20050;-63
2023/01/08 06:51:35;;;;;;;2.05;0.65;;;;;;;12.37;74.86;99845.31;4997319;28;20046;-63
2023/01/08 06:54:03;;;;;;;2.67;0.60;;;;;;;12.56;75.57;99853.81;4997835;28;20054;-62
2023/01/08 06:56:30;;;;;;;3.58;0.90;;;;;;;12.41;75.25;99852.53;4998795;28;20042;-62
2023/01/08 06:59:00;;;;;;;3.33;0.70;;;;;;;12.60;75.27;99845.63;4999278;28;20061;-69
2023/01/08 07:01:27;;;;;;;3.25;0.88;;;;;;;12.54;75.27;99847.81;5013052;28;20045;-68
2023/01/08 07:03:54;;;;;;;1.85;0.70;;;;;;;12.55;75.63;99841.16;4999215;28;20061;-69
2023/01/08 07:06:22;;;;;;;3.25;0.80;;;;;;;12.58;76.45;99839.63;5013053;28;20054;-61
2023/01/08 07:08:50;;;;;;;5.18;0.93;;;;;;;12.61;75.62;99849.97;4998818;28;20061;-61
2023/01/08 07:11:17;;;;;;;3.50;0.80;;;;;;;12.50;74.85;99843.34;4997975;28;20069;-62
2023/01/08 07:13:44;;;;;;;2.42;0.90;;;;;;;12.62;76.60;99844.13;4998413;28;20054;-62
2023/01/08 07:16:13;;;;;;;3.45;0.80;;;;;;;12.50;77.26;99835.84;4983839;28;20050;-62
2023/01/08 07:18:41;;;;;;;4.75;0.95;;;;;;;12.34;76.83;99841.28;4979064;28;20078;-61
2023/01/08 07:21:09;;;;;;;3.35;0.90;;;;;;;12.63;76.70;99837.44;4969014;28;20042;-62
2023/01/08 07:23:37;;;;;;;3.25;0.90;;;;;;;12.63;77.03;99837.44;5012619;28;20050;-63
2023/01/08 07:26:06;;;;;;;3.13;0.80;;;;;;;12.69;75.77;99830.53;4992523;28;20350;-62
2023/01/08 07:28:33;;;;;;;6.10;1.90;;;;;;;12.64;76.61;99832.75;5011386;28;20051;-63
2023/01/08 07:31:02;;;;;;;15.45;5.43;;;;;;;12.79;77.14;99829.22;5010640;28;20050;-62
2023/01/08 07:33:30;;;;;;;8.90;2.17;;;;;;;12.60;77.72;99837.34;4973637;28;20050;-60
2023/01/08 07:35:57;;;;;;;4.45;1.20;;;;;;;12.46;77.65;99837.72;4976104;28;20062;-62
2023/01/08 07:38:24;;;;;;;5.03;1.15;;;;;;;12.61;78.11;99837.00;4994092;28;20430;-62
2023/01/08 07:40:52;;;;;;;10.43;3.60;;;;;;;12.64;77.80;99830.75;4987656;28;20061;-62
2023/01/08 07:43:19;;;;;;;15.35;1.92;;;;;;;12.53;78.82;99832.41;4943313;28;20057;-63
2023/01/08 07:45:47;;;;;;;8.82;3.40;;;;;;;12.44;78.20;99826.19;4970815;28;20046;-63
2023/01/08 07:48:15;;;;;;;5.95;1.50;;;;;;;12.69;78.25;99821.44;4977740;28;20097;-62
2023/01/08 07:50:43;;;;;;;4.68;1.42;;;;;;;12.43;77.72;99824.56;4980268;28;20506;-62
2023/01/08 07:53:12;;;;;;;6.35;1.55;;;;;;;12.51;78.45;99822.84;4978955;28;20047;-62
2023/01/08 07:55:39;;;;;;;5.47;1.30;;;;;;;12.55;77.54;99818.25;4979350;28;20050;-61
2023/01/08 07:58:11;;;;;;;6.18;1.10;;;;;;;12.49;77.57;99820.44;4980271;28;20117;-61
2023/01/08 08:00:39;;;;;;;8.18;1.98;;;;;;;12.59;78.89;99819.94;4964635;28;20054;-62
2023/01/08 08:03:10;;;;;;;6.55;1.10;;;;;;;12.17;77.82;99826.88;4987849;28;20043;-62
2023/01/08 08:05:37;;;;;;;7.25;1.65;;;;;;;12.32;78.76;99827.03;4962459;28;20716;-62
2023/01/08 08:08:09;;;;;;;8.07;1.52;;;;;;;12.61;78.05;99816.84;4982095;28;20051;-62
2023/01/08 08:10:37;;;;;;;9.43;1.45;;;;;;;12.62;78.06;99827.56;4959444;28;20057;-62
2023/01/08 08:13:05;;;;;;;7.72;1.45;;;;;;;12.13;77.62;99829.53;4982333;28;20051;-62
2023/01/08 08:15:34;;;;;;;7.97;1.55;;;;;;;12.46;78.82;99821.13;4979254;28;20061;-63
2023/01/08 08:18:02;;;;;;;4.43;1.13;;;;;;;12.20;78.50;99823.47;4978633;28;20059;-63
2023/01/08 08:20:30;;;;;;;6.60;1.80;;;;;;;12.10;78.00;99821.94;4984743;28;20301;-61
2023/01/08 08:23:04;;;;;;;10.35;1.80;;;;;;;11.83;78.72;99811.59;4962024;28;20047;-62
2023/01/08 08:25:32;;;;;;;7.05;1.55;;;;;;;12.11;79.50;99817.25;4980007;28;20058;-62
2023/01/08 08:28:00;;;;;;;7.57;1.55;;;;;;;11.92;78.92;99803.22;4981714;28;20139;-62
2023/01/08 08:30:29;;;;;;;7.93;2.22;;;;;;;11.80;79.30;99797.69;4979580;28;20081;-63
2023/01/08 08:32:59;;;;;;;7.07;1.60;;;;;;;11.97;80.63;99803.81;4989989;28;20049;-62
2023/01/08 08:35:27;;;;;;;8.13;1.67;;;;;;;11.71;79.79;99797.81;4980418;28;20503;-62
2023/01/08 08:37:55;;;;;;;11.05;6.25;;;;;;;11.97;80.24;99798.28;4979734;28;20046;-62
2023/01/08 08:40:23;;;;;;;12.38;6.35;;;;;;;11.96;81.41;99791.13;4990205;28;20050;-62
2023/01/08 08:42:57;;;;;;;9.13;4.30;;;;;;;12.03;80.07;99794.13;4977818;28;20043;-61
2023/01/08 08:45:25;;;;;;;12.60;5.85;;;;;;;12.13;81.30;99779.84;4981772;28;20043;-61
2023/01/08 08:47:52;;;;;;;8.85;3.33;;;;;;;12.35;80.70;99781.34;4980126;28;20046;-63
2023/01/08 08:50:20;;;;;;;9.48;4.10;;;;;;;12.00;78.24;99782.97;4974313;28;20061;-61
2023/01/08 08:52:48;;;;;;;7.60;1.70;;;;;;;12.05;79.40;99779.97;4980919;28;20047;-61
2023/01/08 08:55:16;;;;;;;6.20;1.58;;;;;;;11.83;80.40;99783.19;4981474;28;20071;-61
2023/01/08 08:57:44;;;;;;;7.15;1.60;;;;;;;11.58;80.95;99779.56;4993943;28;20050;-61
2023/01/08 09:00:13;;;;;;;5.57;1.65;;;;;;;11.47;81.38;99775.69;4992519;28;20523;-61
2023/01/08 09:02:41;;;;;;;5.05;1.73;;;;;;;11.91;84.95;99776.75;4980967;28;20063;-62
2023/01/08 09:05:09;;;;;;;7.47;1.80;;;;;;;12.02;80.90;99773.19;4981525;28;20503;-63
2023/01/08 09:07:37;;;;;;;5.72;1.55;;;;;;;12.20;79.44;99779.28;4986211;28;20426;-63
2023/01/08 09:10:04;;;;;;;7.63;1.60;;;;;;;12.31;78.11;99778.47;4989074;28;20520;-61
2023/01/08 09:12:32;;;;;;;6.18;1.60;;;;;;;12.63;77.97;99779.44;4992130;28;20055;-61
2023/01/08 09:14:59;;;;;;;6.68;1.33;;;;;;;12.94;76.56;99781.50;4967012;28;20516;-61
2023/01/08 09:17:27;;;;;;;9.00;1.55;;;;;;;12.59;77.45;99783.25;4979159;28;20053;-61
2023/01/08 09:19:54;;;;;;;8.00;1.83;;;;;;;13.02;76.10;99786.91;4977118;28;20554;-62
2023/01/08 09:22:21;;;;;;;4.32;1.40;;;;;;;12.69;76.61;99788.28;4977507;28;20043;-61
2023/01/08 09:24:48;;;;;;;15.32;7.78;;;;;;;13.02;76.56;99781.38;4984365;28;20050;-61
2023/01/08 09:27:16;;;;;;;21.42;13.73;;;;;;;13.12;75.16;99783.66;4980590;28;20058;-59
2023/01/08 09:29:43;;;;;;;9.73;3.42;;;;;;;13.31;75.18;99775.50;4968013;28;20058;-63
2023/01/08 09:32:11;;;;;;;12.73;2.42;;;;;;;13.44;74.47;99776.22;4977738;28;20046;-60
2023/01/08 09:34:38;;;;;;;5.30;1.63;;;;;;;13.53;74.06;99772.13;4980561;28;20057;-60
2023/01/08 09:37:06;;;;;;;7.95;1.45;;;;;;;13.45;73.00;99770.34;4990059;28;20057;-61
2023/01/08 09:39:33;;;;;;;11.38;2.20;;;;;;;13.62;71.86;99779.44;4983648;28;20062;-60
2023/01/08 09:42:03;;;;;;;10.57;2.28;;;;;;;13.61;72.63;99786.97;4979910;28;20073;-60
2023/01/08 09:44:36;;;;;;;6.22;1.65;;;;;;;13.69;71.38;99788.72;4966708;28;20050;-60
2023/01/08 09:47:05;;;;;;;10.35;1.85;;;;;;;13.68;70.72;99783.56;4971632;28;20057;-60
2023/01/08 09:49:39;;;;;;;6.57;1.33;;;;;;;13.65;70.11;99789.81;4955442;28;20058;-60
2023/01/08 09:52:10;;;;;;;11.63;1.88;;;;;;;13.71;69.66;99789.19;5000031;28;20062;-69
2023/01/08 09:54:39;;;;;;;16.80;9.23;;;;;;;13.77;69.69;99778.66;4955512;28;20416;-58
2023/01/08 09:57:12;;;;;;;13.75;7.10;;;;;;;13.93;69.24;99785.00;4996736;28;20059;-59
2023/01/08 09:59:40;;;;;;;23.80;13.18;;;;;;;14.19;68.29;99782.47;4995074;28;20061;-62
2023/01/08 10:02:14;;;;;;;20.77;10.80;;;;;;;14.06;68.12;99786.50;4983174;28;20058;-60
2023/01/08 10:04:43;;;;;;;11.27;3.63;;;;;;;13.88;68.97;99786.06;4992799;28;20053;-61
2023/01/08 10:07:20;;;;;;;12.77;2.45;;;;;;;14.02;68.41;99783.63;4986175;28;20073;-62
2023/01/08 10:09:50;;;;;;;13.07;2.63;;;;;;;14.07;68.04;99780.59;4973494;28;20043;-59
2023/01/08 10:12:29;;;;;;;9.48;2.58;;;;;;;13.96;69.49;99784.28;4968636;28;20057;-61
2023/01/08 10:15:11;;;;;;;11.57;2.45;;;;;;;13.97;68.29;99775.59;4983143;28;20046;-61
2023/01/08 10:17:39;;;;;;;9.68;2.45;;;;;;;13.99;69.52;99767.75;5012090;28;20517;-61
2023/01/08 10:20:10;;;;;;;8.88;1.90;;;;;;;14.03;68.51;99773.38;4993871;28;20058;-62
2023/01/08 10:22:38;;;;;;;8.85;2.10;;;;;;;14.09;68.09;99766.38;5003721;28;20074;-60
2023/01/08 10:25:16;;;;;;;8.68;1.95;;;;;;;14.10;68.16;99768.81;4991397;28;20062;-62
2023/01/08 10:27:50;;;;;;;8.05;1.75;;;;;;;14.16;67.31;99770.13;4980831;28;20051;-61
2023/01/08 10:30:32;;;;;;;11.50;2.25;;;;;;;14.18;67.47;99755.91;4996288;28;20054;-61
2023/01/08 10:33:06;;;;;;;12.13;2.35;;;;;;;14.26;67.27;99744.66;4956218;28;20047;-63
2023/01/08 10:35:36;;;;;;;15.50;5.65;;;;;;;14.39;66.81;99745.34;4956839;28;20070;-61
2023/01/08 10:38:03;;;;;;;14.48;4.45;;;;;;;14.43;66.33;99749.81;4968078;28;20058;-61
2023/01/08 10:40:43;;;;;;;10.98;2.75;;;;;;;14.31;66.92;99749.16;4992662;28;20063;-60
2023/01/08 10:43:14;;;;;;;15.60;2.60;;;;;;;14.26;68.45;99738.34;4973758;28;20046;-59
2023/01/08 10:45:43;;;;;;;14.77;2.53;;;;;;;14.38;68.87;99730.69;4962231;28;20050;-60
2023/01/08 10:48:17;;;;;;;13.35;2.15;;;;;;;14.24;70.36;99735.09;4997780;28;20051;-61
2023/01/08 10:50:44;;;;;;;12.52;2.30;;;;;;;14.33;68.90;99722.66;4972891;28;20062;-62
2023/01/08 10:53:23;;;;;;;13.73;2.33;;;;;;;14.30;71.89;99730.91;4970215;28;20054;-61
2023/01/08 10:55:58;;;;;;;14.23;2.15;;;;;;;14.28;71.22;99736.00;4961927;28;20058;-58
2023/01/08 10:58:27;;;;;;;11.13;2.05;;;;;;;14.49;71.31;99728.97;4961273;28;20051;-62
2023/01/08 11:01:08;;;;;;;15.77;2.93;;;;;;;14.68;70.96;99728.16;4958394;28;20419;-62
2023/01/08 11:03:35;;;;;;;12.77;2.92;;;;;;;14.56;70.62;99723.56;4948643;28;20065;-63
2023/01/08 11:06:10;;;;;;;14.20;2.85;;;;;;;14.50;69.44;99722.28;4994722;28;20051;-61
2023/01/08 11:08:38;;;;;;;14.52;2.42;;;;;;;14.48;72.00;99718.25;4958773;28;20063;-61
2023/01/08 11:11:07;;;;;;;12.65;2.13;;;;;;;14.50;70.40;99715.91;4957440;28;20051;-61
2023/01/08 11:13:34;;;;;;;30.08;15.48;;;;;;;14.56;70.81;99708.91;4983679;28;20057;-59
2023/01/08 11:16:09;;;;;;;14.88;4.85;;;;;;;14.54;69.07;99698.19;4957342;28;20039;-61
2023/01/08 11:18:47;;;;;;;14.40;4.82;;;;;;;14.61;67.72;99686.44;4955746;28;20055;-61
2023/01/08 11:21:23;;;;;;;16.95;2.97;;;;;;;14.69;67.14;99693.75;4960873;28;20047;-63
2023/01/08 11:24:10;;;;;;;13.45;2.90;;;;;;;14.40;65.58;99688.78;4957442;29;20050;-60
2023/01/08 11:26:39;;;;;;;15.57;2.78;;;;;;;14.69;67.57;99685.44;4979885;28;20062;-59
2023/01/08 11:29:16;;;;;;;16.90;3.42;;;;;;;14.41;66.18;99684.84;4957311;28;20073;-61
2023/01/08 11:31:55;;;;;;;15.23;2.72;;;;;;;14.52;67.25;99669.25;4980598;28;20156;-62
2023/01/08 11:34:42;;;;;;;11.82;2.70;;;;;;;14.71;66.17;99652.63;4984737;28;20513;-64
2023/01/08 11:37:14;;;;;;;18.85;3.58;;;;;;;14.45;65.34;99641.41;4959710;28;20054;-60
2023/01/08 11:39:41;;;;;;;10.73;2.40;;;;;;;14.51;65.07;99640.72;4991844;28;20055;-62
2023/01/08 11:42:32;;;;;;;17.17;3.33;;;;;;;14.54;65.73;99633.63;4978730;28;20065;-63